Time;durP1;ratioP1;P1;durP2;ratioP2;P2;SDS_P1;SDS_P2;PMS_P1;PMS_P2;Temp;Humidity;BMP_temperature;BMP_pressure;BME280_temperature;BME280_humidity;BME280_pressure;Samples;Min_cycle;Max_cycle;Signal;HPM_P1;HPM_P2
2021/12/15 00:01:00;;;;;;;53.40;20.55;;;0.80;99.90;;;;;;5026772;28;20210;-92
2021/12/15 00:03:26;;;;;;;55.67;21.57;;;0.80;99.90;;;;;;5034955;28;20548;-91
2021/12/15 00:05:53;;;;;;;57.95;20.42;;;0.80;99.90;;;;;;5034822;28;21038;-93
2021/12/15 00:08:18;;;;;;;54.20;17.70;;;0.80;99.90;;;;;;5016782;28;20666;-92
2021/12/15 00:10:46;;;;;;;50.13;16.50;;;0.80;99.90;;;;;;5017097;28;20195;-88
2021/12/15 00:13:13;;;;;;;46.45;17.73;;;0.80;99.90;;;;;;5016947;28;20670;-88
2021/12/15 00:15:40;;;;;;;39.40;17.63;;;0.70;99.90;;;;;;5016620;28;20198;-89
2021/12/15 00:18:06;;;;;;;50.53;19.15;;;0.70;99.90;;;;;;5034207;28;20278;-93
2021/12/15 00:20:33;;;;;;;54.15;19.33;;;0.70;99.90;;;;;;5034414;28;20199;-93
2021/12/15 00:22:59;;;;;;;45.97;18.80;;;0.80;99.90;;;;;;5016870;28;20178;-93
2021/12/15 00:25:28;;;;;;;41.63;17.57;;;0.80;99.90;;;;;;5016607;28;20244;-93
2021/12/15 00:27:54;;;;;;;45.53;18.42;;;0.80;99.90;;;;;;5034431;28;20832;-88
2021/12/15 00:30:21;;;;;;;39.85;17.95;;;0.80;99.90;;;;;;5016742;28;20232;-89
2021/12/15 00:32:48;;;;;;;44.67;18.45;;;0.80;99.90;;;;;;5016598;28;20278;-93
2021/12/15 00:35:15;;;;;;;40.30;17.80;;;0.80;99.90;;;;;;5033101;28;20598;-93
2021/12/15 00:37:41;;;;;;;40.97;16.17;;;0.80;99.90;;;;;;5016566;28;20179;-89
2021/12/15 00:40:09;;;;;;;36.88;15.95;;;0.80;99.90;;;;;;5016733;28;20210;-88
2021/12/15 00:42:35;;;;;;;43.83;17.50;;;0.80;99.90;;;;;;5020480;28;20187;-94
2021/12/15 00:45:04;;;;;;;50.70;16.50;;;0.80;99.90;;;;;;5020703;28;20225;-88
2021/12/15 00:47:29;;;;;;;42.05;16.83;;;0.80;99.90;;;;;;5052403;28;20237;-93
2021/12/15 00:49:55;;;;;;;39.10;16.57;;;0.80;99.90;;;;;;5056792;28;20199;-93
2021/12/15 00:52:21;;;;;;;45.67;18.50;;;0.80;99.90;;;;;;5040236;28;20190;-89
2021/12/15 00:54:46;;;;;;;39.60;16.40;;;0.80;99.90;;;;;;5030109;28;20237;-92
2021/12/15 00:57:12;;;;;;;37.53;16.87;;;0.70;99.90;;;;;;5019973;28;20675;-89
2021/12/15 00:59:38;;;;;;;41.90;15.77;;;0.70;99.90;;;;;;5037521;28;20266;-88
2021/12/15 01:02:05;;;;;;;41.27;16.80;;;0.70;99.90;;;;;;5019930;28;20179;-90
2021/12/15 01:04:31;;;;;;;39.05;16.15;;;0.60;99.90;;;;;;5037448;28;21018;-95
2021/12/15 01:07:00;;;;;;;45.70;16.95;;;0.60;99.90;;;;;;5019845;28;20179;-89
2021/12/15 01:09:31;;;;;;;45.72;17.60;;;0.60;99.90;;;;;;5019805;28;20274;-89
2021/12/15 01:19:53;;;;;;;33.20;16.55;;;0.60;99.90;;;;;;5037440;28;20233;-89
2021/12/15 01:22:35;;;;;;;53.50;18.35;;;0.60;99.90;;;;;;5020070;28;20174;-94
2021/12/15 01:25:14;;;;;;;40.60;16.90;;;0.60;99.90;;;;;;5019524;28;20703;-93
2021/12/15 01:27:40;;;;;;;63.42;18.67;;;0.60;99.90;;;;;;5019733;28;20613;-89
2021/12/15 01:30:10;;;;;;;50.47;14.60;;;0.60;99.90;;;;;;5024499;28;20241;-94
2021/12/15 01:32:36;;;;;;;43.85;14.52;;;0.50;99.90;;;;;;5058614;28;20482;-91
2021/12/15 01:35:03;;;;;;;38.73;14.17;;;0.50;99.90;;;;;;5046411;28;20198;-90
2021/12/15 01:37:28;;;;;;;41.47;15.13;;;0.50;99.90;;;;;;5020674;28;20930;-93
2021/12/15 01:39:55;;;;;;;54.83;14.10;;;0.50;99.90;;;;;;5019419;28;20206;-93
2021/12/15 01:42:29;;;;;;;47.88;15.48;;;0.50;99.90;;;;;;5018904;28;20426;-88
2021/12/15 01:47:40;;;;;;;39.00;14.45;;;0.50;99.90;;;;;;5036436;28;20314;-93
2021/12/15 01:50:11;;;;;;;33.28;14.18;;;0.50;99.90;;;;;;5036121;28;20260;-88
2021/12/15 01:52:40;;;;;;;42.22;15.40;;;0.50;99.90;;;;;;5036545;28;20167;-93
2021/12/15 01:55:08;;;;;;;51.30;15.10;;;0.50;99.90;;;;;;5018926;28;20206;-94
2021/12/15 01:57:35;;;;;;;48.78;14.63;;;0.50;99.90;;;;;;5018910;28;20244;-93
2021/12/15 02:00:24;;;;;;;52.92;15.40;;;0.50;99.90;;;;;;5018241;28;20207;-93
2021/12/15 02:02:51;;;;;;;34.35;13.52;;;0.50;99.90;;;;;;5035966;28;20652;-88
2021/12/15 02:05:17;;;;;;;45.28;14.38;;;0.50;99.90;;;;;;5036693;28;20769;-89
2021/12/15 02:07:47;;;;;;;45.85;15.00;;;0.50;99.90;;;;;;5036192;28;20200;-93
2021/12/15 02:10:15;;;;;;;37.95;14.10;;;0.50;99.90;;;;;;5036323;28;20206;-93
2021/12/15 02:12:43;;;;;;;37.40;14.30;;;0.50;99.90;;;;;;5036672;28;20167;-93
2021/12/15 02:15:21;;;;;;;44.75;13.75;;;0.50;99.90;;;;;;5027546;28;20206;-93
2021/12/15 02:17:48;;;;;;;46.10;12.48;;;0.50;99.90;;;;;;5023249;28;20177;-93
2021/12/15 02:20:17;;;;;;;28.05;12.85;;;0.40;99.90;;;;;;5018697;28;20211;-89
2021/12/15 02:22:44;;;;;;;47.63;14.45;;;0.40;99.90;;;;;;5035912;28;20760;-93
2021/12/15 02:25:13;;;;;;;38.95;14.55;;;0.30;99.90;;;;;;5035958;28;20222;-88
2021/12/15 02:27:40;;;;;;;57.22;14.57;;;0.30;99.90;;;;;;5035994;28;20236;-93
2021/12/15 02:33:25;;;;;;;34.28;12.93;;;0.20;99.90;;;;;;5035842;28;20187;-93
2021/12/15 02:38:42;;;;;;;50.92;15.73;;;0.10;99.90;;;;;;5039535;28;20223;-88
2021/12/15 02:41:24;;;;;;;40.80;14.50;;;0.10;99.90;;;;;;5018037;28;20198;-88
2021/12/15 02:44:05;;;;;;;62.20;16.30;;;0.10;99.90;;;;;;5018120;28;20181;-90
2021/12/15 02:46:33;;;;;;;57.85;16.45;;;0.10;99.90;;;;;;5017766;28;20238;-93
2021/12/15 02:49:00;;;;;;;39.78;15.40;;;0.00;99.90;;;;;;5027767;28;20175;-94
2021/12/15 02:51:27;;;;;;;37.45;14.55;;;0.00;99.90;;;;;;5052261;28;20195;-89
2021/12/15 02:53:54;;;;;;;32.13;15.23;;;0.00;99.90;;;;;;5028075;28;20193;-93
2021/12/15 02:56:20;;;;;;;54.83;14.35;;;0.00;99.90;;;;;;5033117;28;20202;-91
2021/12/15 02:58:55;;;;;;;46.87;14.50;;;0.00;99.90;;;;;;5054504;28;20206;-89
2021/12/15 03:01:50;;;;;;;33.35;14.02;;;0.00;99.90;;;;;;5024600;28;20229;-88
2021/12/15 03:15:33;;;;;;;47.75;15.88;;;-0.10;99.90;;;;;;5035515;28;20224;-87
2021/12/15 03:18:14;;;;;;;37.53;15.02;;;-0.10;99.90;;;;;;5035099;28;20255;-94
2021/12/15 03:20:49;;;;;;;42.25;13.85;;;-0.10;99.90;;;;;;5017565;28;20199;-93
2021/12/15 03:23:23;;;;;;;37.55;14.43;;;-0.10;99.90;;;;;;5018324;28;20233;-88
2021/12/15 03:25:49;;;;;;;29.95;12.25;;;-0.10;99.90;;;;;;5024270;28;20655;-88
2021/12/15 03:33:57;;;;;;;38.63;13.52;;;-0.30;99.90;;;;;;5034696;28;20194;-93
2021/12/15 03:36:51;;;;;;;45.45;14.00;;;-0.30;99.90;;;;;;5016896;28;20249;-88
2021/12/15 03:39:18;;;;;;;43.03;15.45;;;-0.40;99.90;;;;;;5038999;28;20182;-92
2021/12/15 03:41:44;;;;;;;29.77;12.60;;;-0.40;99.90;;;;;;5018802;28;20293;-89
2021/12/15 03:44:10;;;;;;;35.22;14.85;;;-0.50;99.90;;;;;;5034646;28;20640;-88
2021/12/15 03:46:37;;;;;;;44.67;15.30;;;-0.50;99.90;;;;;;5034344;28;20293;-93
2021/12/15 03:49:04;;;;;;;32.33;14.68;;;-0.50;99.90;;;;;;5034879;28;20389;-93
2021/12/15 03:51:29;;;;;;;45.90;16.48;;;-0.50;99.90;;;;;;5016962;28;20293;-94
2021/12/15 03:53:56;;;;;;;36.33;14.10;;;-0.50;99.90;;;;;;5034442;28;20213;-89
2021/12/15 03:56:21;;;;;;;39.30;16.98;;;-0.50;99.90;;;;;;5034516;28;20436;-89
2021/12/15 03:58:48;;;;;;;36.27;15.80;;;-0.50;99.90;;;;;;5034684;28;20177;-94
2021/12/15 04:01:18;;;;;;;34.25;15.70;;;-0.50;99.90;;;;;;5016981;28;20206;-94
2021/12/15 04:03:50;;;;;;;42.10;14.25;;;-0.50;99.90;;;;;;5034615;28;20167;-89
2021/12/15 04:06:27;;;;;;;35.47;14.98;;;-0.50;99.90;;;;;;5017065;28;20222;-94
2021/12/15 04:08:53;;;;;;;38.92;16.02;;;-0.60;99.90;;;;;;5019039;28;20173;-94
2021/12/15 04:11:23;;;;;;;46.05;16.20;;;-0.60;99.90;;;;;;5017100;28;20229;-89
2021/12/15 04:13:49;;;;;;;47.20;16.50;;;-0.50;99.90;;;;;;5035048;28;20174;-90
2021/12/15 04:19:16;;;;;;;34.65;17.35;;;-0.50;99.90;;;;;;5035243;28;20297;-90
2021/12/15 04:21:43;;;;;;;52.28;16.45;;;-0.40;99.90;;;;;;5029798;28;20205;-89
2021/12/15 04:24:12;;;;;;;40.85;16.40;;;-0.40;99.90;;;;;;5020887;28;20183;-94
2021/12/15 04:26:38;;;;;;;29.80;14.95;;;-0.40;99.90;;;;;;5038160;28;20686;-90
2021/12/15 04:29:05;;;;;;;34.83;15.27;;;-0.40;99.90;;;;;;5020438;28;20186;-89
2021/12/15 04:31:33;;;;;;;32.13;14.90;;;-0.40;99.90;;;;;;5021003;28;20194;-89
2021/12/15 04:34:09;;;;;;;28.40;14.95;;;-0.30;99.90;;;;;;5038173;28;20179;-90
2021/12/15 04:36:40;;;;;;;31.58;13.95;;;-0.30;99.90;;;;;;5020678;28;20276;-94
2021/12/15 04:39:08;;;;;;;33.30;13.60;;;-0.30;99.90;;;;;;5038242;28;20179;-90
2021/12/15 04:41:35;;;;;;;34.05;14.77;;;-0.30;99.90;;;;;;5021079;28;20198;-94
2021/12/15 04:44:09;;;;;;;30.08;14.23;;;-0.30;99.90;;;;;;5020420;28;20186;-94
2021/12/15 04:46:39;;;;;;;28.80;13.02;;;-0.30;99.90;;;;;;5014914;28;20695;-90
2021/12/15 04:49:07;;;;;;;35.47;15.07;;;-0.30;99.90;;;;;;5018089;28;20187;-89
2021/12/15 04:51:33;;;;;;;39.40;14.80;;;-0.30;99.90;;;;;;5000383;28;20294;-94
2021/12/15 04:54:00;;;;;;;23.85;12.57;;;-0.30;99.90;;;;;;5018183;28;20178;-89
2021/12/15 04:56:26;;;;;;;33.83;12.15;;;-0.20;99.90;;;;;;5000520;28;20261;-95
2021/12/15 04:58:54;;;;;;;32.63;13.38;;;-0.30;99.90;;;;;;5016766;28;20175;-95
2021/12/15 05:01:22;;;;;;;31.80;12.85;;;-0.20;99.90;;;;;;4999940;28;20195;-94
2021/12/15 05:03:48;;;;;;;32.17;13.20;;;-0.30;99.90;;;;;;5000304;28;20771;-94
2021/12/15 05:06:14;;;;;;;25.88;11.90;;;-0.30;99.90;;;;;;5000016;28;20222;-89
2021/12/15 05:08:41;;;;;;;42.30;14.00;;;-0.20;99.90;;;;;;5001569;28;20179;-91
2021/12/15 05:11:10;;;;;;;30.10;12.82;;;-0.20;99.90;;;;;;5030103;28;20452;-93
2021/12/15 05:13:37;;;;;;;38.05;19.02;;;-0.20;99.90;;;;;;5000890;28;20724;-94
2021/12/15 05:16:05;;;;;;;30.17;13.90;;;-0.20;99.90;;;;;;5004563;28;20238;-89
2021/12/15 05:18:32;;;;;;;34.05;14.85;;;-0.20;99.90;;;;;;5000001;28;20182;-94
2021/12/15 05:20:59;;;;;;;33.30;14.88;;;-0.20;99.90;;;;;;5017796;28;20210;-90
2021/12/15 05:23:29;;;;;;;26.13;11.88;;;-0.10;99.90;;;;;;5000004;28;20636;-89
2021/12/15 05:25:57;;;;;;;26.02;11.63;;;-0.10;99.90;;;;;;4999651;28;20318;-94
2021/12/15 05:28:23;;;;;;;26.73;12.25;;;0.00;99.90;;;;;;4999747;28;20266;-94
2021/12/15 05:30:49;;;;;;;26.70;9.97;;;0.30;99.90;;;;;;5017804;28;20231;-93
2021/12/15 05:33:15;;;;;;;22.88;9.27;;;0.30;99.90;;;;;;5018676;28;20417;-89
2021/12/15 05:35:41;;;;;;;31.40;12.60;;;0.40;99.90;;;;;;5014381;28;20353;-89
2021/12/15 05:38:08;;;;;;;24.30;12.07;;;0.40;99.90;;;;;;4998122;28;20648;-89
2021/12/15 05:40:35;;;;;;;20.63;12.15;;;0.50;99.90;;;;;;5016472;28;20454;-94
2021/12/15 05:43:02;;;;;;;23.33;10.90;;;0.50;99.90;;;;;;5001095;28;20175;-93
2021/12/15 05:45:31;;;;;;;29.73;10.40;;;0.40;99.90;;;;;;5018082;28;20227;-89
2021/12/15 05:47:58;;;;;;;21.27;11.10;;;0.40;99.90;;;;;;5014638;28;20250;-89
2021/12/15 05:50:27;;;;;;;32.25;12.60;;;0.30;99.90;;;;;;4996378;28;20207;-94
2021/12/15 05:52:54;;;;;;;28.50;11.80;;;0.10;99.90;;;;;;4997408;28;20584;-90
2021/12/15 05:55:21;;;;;;;31.00;11.85;;;0.00;99.90;;;;;;4996649;28;20207;-94
2021/12/15 05:57:46;;;;;;;30.33;12.48;;;-0.20;99.90;;;;;;4994604;28;20191;-93
2021/12/15 06:00:17;;;;;;;25.73;12.15;;;-0.30;99.90;;;;;;5011731;28;20203;-94
2021/12/15 06:02:43;;;;;;;36.85;13.02;;;-0.40;99.90;;;;;;5000393;28;20593;-94
2021/12/15 06:05:10;;;;;;;29.08;12.15;;;-0.50;99.90;;;;;;4998327;28;20582;-94
2021/12/15 06:07:37;;;;;;;26.88;13.35;;;-0.60;99.90;;;;;;5006799;28;20183;-89
2021/12/15 06:10:08;;;;;;;25.75;13.48;;;-0.70;99.90;;;;;;5001563;28;20211;-93
2021/12/15 06:12:34;;;;;;;33.58;12.50;;;-0.70;99.90;;;;;;5006540;28;20199;-89
2021/12/15 06:15:00;;;;;;;26.57;12.10;;;-0.80;99.90;;;;;;4998475;28;20211;-89
2021/12/15 06:17:26;;;;;;;32.67;14.30;;;-0.80;99.90;;;;;;5001011;28;20435;-89
2021/12/15 06:19:56;;;;;;;50.70;17.17;;;-0.80;99.90;;;;;;5002163;28;20985;-89
2021/12/15 06:22:26;;;;;;;43.20;14.90;;;-0.90;99.90;;;;;;4997099;28;20179;-89
2021/12/15 06:24:56;;;;;;;28.02;13.02;;;-0.90;99.90;;;;;;4983770;28;20253;-89
2021/12/15 06:27:24;;;;;;;32.10;14.00;;;-0.90;99.90;;;;;;5016430;28;20171;-89
2021/12/15 06:29:53;;;;;;;40.90;16.80;;;-1.00;99.90;;;;;;4980846;28;20220;-89
2021/12/15 06:32:21;;;;;;;113.20;27.35;;;-0.90;99.90;;;;;;4997650;28;20178;-89
2021/12/15 06:34:47;;;;;;;91.50;27.90;;;-0.90;99.90;;;;;;4997622;28;20218;-88
2021/12/15 06:37:13;;;;;;;60.42;20.23;;;-1.00;99.90;;;;;;4995055;28;20183;-94
2021/12/15 06:39:39;;;;;;;84.85;32.22;;;-0.90;99.90;;;;;;4982255;28;20194;-89
2021/12/15 06:42:06;;;;;;;51.53;26.58;;;-1.00;99.90;;;;;;4993034;28;20289;-94
2021/12/15 06:44:33;;;;;;;53.35;26.95;;;-1.00;99.90;;;;;;4996610;28;20277;-92
2021/12/15 07:00:23;;;;;;;66.60;31.27;;;-1.00;99.90;;;;;;5036783;28;20285;-89
2021/12/15 07:02:48;;;;;;;74.15;34.50;;;-1.00;99.90;;;;;;5008446;28;20737;-89
2021/12/15 07:05:17;;;;;;;47.67;22.50;;;-1.00;99.90;;;;;;5013398;28;20700;-94
2021/12/15 07:07:45;;;;;;;61.65;31.83;;;-1.00;99.90;;;;;;5019569;28;20187;-89
2021/12/15 07:10:15;;;;;;;63.72;31.92;;;-1.00;99.90;;;;;;5031884;28;20635;-88
2021/12/15 07:12:40;;;;;;;98.60;53.90;;;-0.90;99.90;;;;;;5020151;28;20706;-94
2021/12/15 07:15:08;;;;;;;46.10;24.40;;;-1.00;99.90;;;;;;5014675;28;20217;-94
2021/12/15 07:17:36;;;;;;;39.65;20.55;;;-1.00;99.90;;;;;;5024244;28;20607;-94
2021/12/15 07:20:08;;;;;;;45.70;24.98;;;-1.00;99.90;;;;;;5023413;28;20238;-90
2021/12/15 07:25:09;;;;;;;52.17;29.27;;;-1.00;99.90;;;;;;5024124;28;20230;-89
2021/12/15 07:27:35;;;;;;;38.47;20.63;;;-0.90;99.90;;;;;;5016417;28;20840;-94
2021/12/15 07:30:02;;;;;;;38.47;17.47;;;-0.90;99.90;;;;;;5009157;28;20210;-95
2021/12/15 07:32:28;;;;;;;32.50;18.40;;;-0.90;99.90;;;;;;5011077;28;20399;-94
2021/12/15 07:34:54;;;;;;;31.67;16.27;;;-0.80;99.90;;;;;;5004425;28;20698;-94
2021/12/15 07:37:20;;;;;;;29.40;16.07;;;-0.70;99.90;;;;;;5021966;28;20603;-93
2021/12/15 07:39:57;;;;;;;29.90;14.00;;;-0.60;99.90;;;;;;5005640;28;20440;-88
2021/12/15 07:42:33;;;;;;;29.23;14.27;;;-0.50;99.90;;;;;;4998435;28;20285;-94
2021/12/15 07:44:59;;;;;;;26.48;15.27;;;-0.30;99.90;;;;;;5018918;28;20231;-89
2021/12/15 07:47:25;;;;;;;28.05;13.40;;;-0.10;99.90;;;;;;5000286;28;20257;-94
2021/12/15 07:49:51;;;;;;;27.60;16.13;;;0.00;99.90;;;;;;5000775;28;20214;-94
2021/12/15 07:52:17;;;;;;;37.27;19.33;;;0.20;99.90;;;;;;5033667;28;20181;-89
2021/12/15 07:54:42;;;;;;;26.83;14.43;;;0.30;99.90;;;;;;5019456;28;20183;-94
2021/12/15 07:57:16;;;;;;;30.07;18.77;;;0.40;99.90;;;;;;5038850;28;20189;-88
2021/12/15 07:59:43;;;;;;;20.35;12.57;;;0.40;99.90;;;;;;5021398;28;20661;-93
2021/12/15 08:02:08;;;;;;;25.02;13.07;;;0.40;99.90;;;;;;5018599;28;20175;-89
2021/12/15 08:04:34;;;;;;;28.13;13.40;;;0.40;99.90;;;;;;5034410;28;20708;-89
2021/12/15 08:07:00;;;;;;;28.07;15.00;;;0.40;99.90;;;;;;5021659;28;20185;-89
2021/12/15 08:09:26;;;;;;;22.27;13.87;;;0.50;99.90;;;;;;5031833;28;20233;-94
2021/12/15 08:11:51;;;;;;;25.60;13.70;;;0.50;99.90;;;;;;5044292;28;20463;-94
2021/12/15 08:14:17;;;;;;;25.57;15.30;;;0.60;99.90;;;;;;5040313;28;20600;-94
2021/12/15 08:16:43;;;;;;;26.48;14.55;;;0.70;99.90;;;;;;5020201;28;20503;-89
2021/12/15 08:19:10;;;;;;;36.13;17.90;;;0.70;99.90;;;;;;5018086;28;20531;-95
2021/12/15 08:21:36;;;;;;;30.65;17.23;;;0.80;99.90;;;;;;5014393;28;20455;-94
2021/12/15 08:24:02;;;;;;;26.47;17.57;;;0.80;99.90;;;;;;5020189;28;20187;-94
2021/12/15 08:26:28;;;;;;;50.58;29.20;;;0.90;99.90;;;;;;5010038;28;20230;-94
2021/12/15 08:28:54;;;;;;;38.75;21.75;;;0.90;99.90;;;;;;5019002;28;21239;-94
2021/12/15 08:31:24;;;;;;;32.50;18.42;;;1.00;99.90;;;;;;5033377;28;20198;-95
2021/12/15 08:33:50;;;;;;;31.65;20.77;;;1.10;99.90;;;;;;5036409;28;20197;-89
2021/12/15 08:36:16;;;;;;;30.60;17.55;;;1.20;99.90;;;;;;5038665;28;20207;-88
2021/12/15 08:38:44;;;;;;;25.48;17.33;;;1.50;99.90;;;;;;5023074;28;20186;-95
2021/12/15 08:41:17;;;;;;;27.48;19.65;;;1.70;99.90;;;;;;5018757;28;20379;-89
2021/12/15 08:43:43;;;;;;;25.15;17.00;;;2.10;99.90;;;;;;5008289;28;20557;-94
2021/12/15 08:46:14;;;;;;;32.10;21.40;;;2.50;99.90;;;;;;5025768;28;20222;-95
2021/12/15 08:48:42;;;;;;;26.95;18.08;;;3.00;99.90;;;;;;4997988;28;20205;-89
2021/12/15 08:51:10;;;;;;;24.75;14.77;;;3.60;99.90;;;;;;4995560;28;20348;-90
2021/12/15 08:53:38;;;;;;;31.98;19.23;;;4.20;99.90;;;;;;5014221;28;20265;-94
2021/12/15 08:56:04;;;;;;;34.45;21.30;;;4.90;99.90;;;;;;5009638;28;20217;-88
2021/12/15 08:58:30;;;;;;;29.30;17.30;;;5.30;99.90;;;;;;5000993;28;20206;-93
2021/12/15 09:00:58;;;;;;;28.57;19.07;;;5.70;99.90;;;;;;5025179;28;20305;-89
2021/12/15 09:03:25;;;;;;;30.80;22.55;;;6.20;99.90;;;;;;5034842;28;20764;-89
2021/12/15 09:05:52;;;;;;;36.08;19.90;;;6.60;99.90;;;;;;5041020;28;20237;-89
2021/12/15 09:08:20;;;;;;;35.35;20.23;;;6.80;99.90;;;;;;5030220;28;20182;-94
2021/12/15 09:10:46;;;;;;;28.55;19.40;;;7.00;99.90;;;;;;5014901;28;20202;-90
2021/12/15 09:13:14;;;;;;;25.85;16.80;;;7.20;99.90;;;;;;5008303;28;20556;-95
2021/12/15 09:15:41;;;;;;;23.30;16.75;;;7.10;99.90;;;;;;5042895;28;20213;-95
2021/12/15 09:18:08;;;;;;;22.60;15.32;;;6.90;99.90;;;;;;5030123;28;20895;-90
2021/12/15 09:20:40;;;;;;;25.60;14.57;;;6.50;99.90;;;;;;5015591;28;21134;-90
2021/12/15 09:23:10;;;;;;;25.05;15.77;;;6.10;99.90;;;;;;5014519;28;20512;-94
2021/12/15 09:25:37;;;;;;;28.83;15.45;;;5.60;99.90;;;;;;5003223;28;20320;-94
2021/12/15 09:28:04;;;;;;;38.08;23.17;;;5.20;99.90;;;;;;5024821;28;20235;-90
2021/12/15 09:30:32;;;;;;;28.45;19.38;;;4.90;99.90;;;;;;5031374;28;20218;-90
2021/12/15 09:32:58;;;;;;;26.92;17.65;;;4.70;99.90;;;;;;5033355;28;20219;-90
2021/12/15 09:35:28;;;;;;;31.70;15.55;;;4.50;99.90;;;;;;5021990;28;20206;-95
2021/12/15 09:37:55;;;;;;;28.90;17.75;;;4.40;99.90;;;;;;5044906;28;20234;-90
2021/12/15 09:40:22;;;;;;;30.50;18.00;;;4.30;99.90;;;;;;5028760;28;20293;-90
2021/12/15 09:42:49;;;;;;;39.20;23.65;;;4.30;99.90;;;;;;5016600;28;20181;-90
2021/12/15 09:45:49;;;;;;;31.30;20.45;;;4.20;99.90;;;;;;5030928;28;20222;-94
2021/12/15 09:56:49;;;;;;;30.67;17.05;;;4.00;99.90;;;;;;5023929;28;20221;-94
2021/12/15 10:07:15;;;;;;;39.95;22.27;;;3.80;99.90;;;;;;5032980;28;20737;-95
2021/12/15 10:21:25;;;;;;;46.35;24.13;;;3.90;99.90;;;;;;5029064;28;20713;-89
2021/12/15 10:23:51;;;;;;;44.60;25.20;;;3.90;99.90;;;;;;5013299;28;20702;-95
2021/12/15 10:26:18;;;;;;;44.90;23.80;;;4.00;99.90;;;;;;5010288;28;20214;-89
2021/12/15 10:28:49;;;;;;;45.78;26.95;;;4.00;99.90;;;;;;5010225;28;20201;-90
2021/12/15 10:31:18;;;;;;;39.88;22.63;;;4.10;99.90;;;;;;5015689;28;20237;-89
2021/12/15 10:33:50;;;;;;;58.60;31.48;;;4.10;99.90;;;;;;5012986;28;20281;-95
2021/12/15 10:36:29;;;;;;;52.72;30.73;;;4.10;99.90;;;;;;5014434;28;20305;-89
2021/12/15 10:38:59;;;;;;;70.72;44.72;;;4.10;99.90;;;;;;5011605;28;20289;-94
2021/12/15 10:41:41;;;;;;;56.92;34.35;;;4.20;99.90;;;;;;5044292;28;20209;-89
2021/12/15 10:44:17;;;;;;;48.88;28.17;;;4.20;99.90;;;;;;5034898;28;20174;-95
2021/12/15 10:47:11;;;;;;;54.47;27.88;;;4.20;99.90;;;;;;5012531;28;20224;-89
2021/12/15 10:49:40;;;;;;;51.67;27.77;;;4.20;99.90;;;;;;5011274;28;20202;-90
2021/12/15 10:52:09;;;;;;;48.72;27.83;;;4.30;99.90;;;;;;5015855;28;20178;-94
2021/12/15 10:54:46;;;;;;;48.15;27.20;;;4.30;99.90;;;;;;5013977;28;20198;-95
2021/12/15 10:57:27;;;;;;;47.97;27.30;;;4.30;99.90;;;;;;5022181;28;20246;-90
2021/12/15 10:59:54;;;;;;;45.35;24.67;;;4.40;99.90;;;;;;5026146;28;20214;-89
2021/12/15 11:02:39;;;;;;;49.90;26.73;;;4.50;99.90;;;;;;5045728;28;20218;-94
2021/12/15 11:05:15;;;;;;;41.80;23.63;;;4.60;99.90;;;;;;5013350;28;20226;-89
2021/12/15 11:07:55;;;;;;;44.70;22.70;;;4.70;99.90;;;;;;5033059;28;20178;-89
2021/12/15 11:10:31;;;;;;;45.47;25.83;;;4.70;99.90;;;;;;5006307;28;20213;-95
2021/12/15 11:13:04;;;;;;;52.17;28.00;;;4.80;99.90;;;;;;5011211;28;20196;-95
2021/12/15 11:15:33;;;;;;;73.80;37.58;;;4.90;99.90;;;;;;5030187;28;20589;-89
2021/12/15 11:18:09;;;;;;;69.95;30.63;;;4.90;99.90;;;;;;5012565;28;20218;-95
2021/12/15 11:20:38;;;;;;;139.98;53.88;;;4.90;99.90;;;;;;5012545;28;20209;-95
2021/12/15 11:23:19;;;;;;;101.35;49.67;;;5.00;99.90;;;;;;5010981;28;20183;-88
2021/12/15 11:25:49;;;;;;;79.18;39.60;;;5.00;99.90;;;;;;5012463;28;20225;-96
2021/12/15 11:28:21;;;;;;;71.45;35.88;;;5.10;99.90;;;;;;5031315;28;20253;-89
2021/12/15 11:30:47;;;;;;;68.03;31.20;;;5.20;99.90;;;;;;5035434;28;20197;-89
2021/12/15 11:33:20;;;;;;;77.57;36.90;;;5.20;99.90;;;;;;5031586;28;20175;-89
2021/12/15 11:35:53;;;;;;;79.35;34.78;;;5.30;99.90;;;;;;5039893;28;20564;-95
2021/12/15 11:38:29;;;;;;;72.75;32.65;;;5.40;99.90;;;;;;5034437;28;20174;-95
2021/12/15 11:40:58;;;;;;;73.82;33.17;;;5.50;99.90;;;;;;5041169;28;20209;-89
2021/12/15 11:43:26;;;;;;;67.80;33.97;;;5.60;99.90;;;;;;5009907;28;20186;-89
2021/12/15 11:45:53;;;;;;;72.95;34.60;;;5.70;99.90;;;;;;5008289;28;20219;-91
2021/12/15 11:48:36;;;;;;;68.65;32.40;;;5.60;99.90;;;;;;5030031;28;20253;-90
2021/12/15 11:51:06;;;;;;;68.53;36.03;;;5.70;99.90;;;;;;5015075;28;20304;-89
2021/12/15 11:53:36;;;;;;;73.95;35.40;;;5.60;99.90;;;;;;5012334;28;20270;-90
2021/12/15 11:56:33;;;;;;;61.72;32.42;;;5.60;99.90;;;;;;5033729;28;20218;-90
2021/12/15 11:59:38;;;;;;;72.93;33.92;;;5.70;99.90;;;;;;5025065;28;20206;-89
2021/12/15 12:02:24;;;;;;;67.00;35.13;;;5.70;99.90;;;;;;5012875;28;20546;-89
2021/12/15 12:04:53;;;;;;;62.05;32.20;;;5.70;99.90;;;;;;5026030;28;20218;-89
2021/12/15 12:07:28;;;;;;;62.97;33.33;;;5.70;99.90;;;;;;5014456;28;20266;-90
2021/12/15 12:10:11;;;;;;;67.18;33.00;;;5.70;99.90;;;;;;5014925;28;20260;-95
2021/12/15 12:12:49;;;;;;;69.45;33.58;;;5.70;99.90;;;;;;5030594;28;20174;-95
2021/12/15 12:15:17;;;;;;;71.45;32.80;;;5.60;99.90;;;;;;5014660;28;20210;-96
2021/12/15 12:17:46;;;;;;;78.43;34.60;;;5.60;99.90;;;;;;5010637;28;20174;-93
2021/12/15 12:20:28;;;;;;;75.22;35.13;;;5.60;99.90;;;;;;5033308;28;20237;-95
2021/12/15 12:22:56;;;;;;;68.05;34.05;;;5.60;99.90;;;;;;5013159;28;20187;-90
2021/12/15 12:25:29;;;;;;;55.38;31.58;;;5.60;99.90;;;;;;5027221;28;20223;-90
2021/12/15 12:28:00;;;;;;;73.07;33.33;;;5.60;99.90;;;;;;5026398;28;20185;-95
2021/12/15 12:30:34;;;;;;;61.25;32.88;;;5.50;99.90;;;;;;5014402;28;20230;-96
2021/12/15 12:33:00;;;;;;;51.83;30.30;;;5.50;99.90;;;;;;5030171;28;20249;-92
2021/12/15 12:35:32;;;;;;;61.13;33.50;;;5.50;99.90;;;;;;5009979;28;20238;-96
2021/12/15 12:38:13;;;;;;;61.10;32.28;;;5.40;99.90;;;;;;5026598;28;20244;-89
2021/12/15 12:41:06;;;;;;;59.60;34.72;;;5.40;99.90;;;;;;5009337;28;20203;-94
2021/12/15 12:43:37;;;;;;;63.25;36.20;;;5.30;99.90;;;;;;5010058;28;20183;-95
2021/12/15 12:46:23;;;;;;;67.32;34.58;;;5.30;99.90;;;;;;5043762;28;20234;-89
2021/12/15 13:00:27;;;;;;;71.18;40.35;;;5.10;99.90;;;;;;5026411;28;21286;-89
2021/12/15 13:03:04;;;;;;;67.97;36.78;;;5.10;99.90;;;;;;5046006;28;20197;-95
2021/12/15 13:05:32;;;;;;;64.00;34.60;;;5.00;99.90;;;;;;5031035;28;20222;-88
2021/12/15 13:08:14;;;;;;;72.00;36.47;;;4.90;99.90;;;;;;5022511;28;20618;-94
2021/12/15 13:11:02;;;;;;;67.03;37.25;;;4.90;99.90;;;;;;5006226;28;20215;-89
2021/12/15 13:13:33;;;;;;;68.15;36.42;;;4.90;99.90;;;;;;5023019;28;20210;-88
2021/12/15 13:16:08;;;;;;;67.85;34.63;;;4.80;99.90;;;;;;5031182;28;20787;-87
2021/12/15 13:18:53;;;;;;;65.18;34.03;;;4.80;99.90;;;;;;5013968;28;20654;-88
2021/12/15 13:21:22;;;;;;;66.43;32.53;;;4.70;99.90;;;;;;5033021;28;20198;-93
2021/12/15 13:23:53;;;;;;;77.45;36.40;;;4.70;99.90;;;;;;5012442;28;20274;-88
2021/12/15 13:29:29;;;;;;;73.78;36.65;;;4.50;99.90;;;;;;5038114;28;20209;-89
2021/12/15 13:31:58;;;;;;;81.50;36.67;;;4.50;99.90;;;;;;5038223;28;20182;-93
2021/12/15 13:34:41;;;;;;;73.25;35.08;;;4.50;99.90;;;;;;5036155;28;20201;-89
2021/12/15 13:37:07;;;;;;;80.30;37.85;;;4.50;99.90;;;;;;5017077;28;20182;-94
2021/12/15 13:39:49;;;;;;;75.75;33.88;;;4.50;99.90;;;;;;5019515;28;20189;-89
2021/12/15 13:42:41;;;;;;;75.18;37.20;;;4.50;99.90;;;;;;5033646;28;20190;-88
2021/12/15 13:45:26;;;;;;;89.88;39.63;;;4.50;99.90;;;;;;5022679;28;20222;-87
2021/12/15 13:47:52;;;;;;;87.35;41.15;;;4.50;99.90;;;;;;5019359;28;20226;-94
2021/12/15 13:50:21;;;;;;;71.40;33.25;;;4.40;99.90;;;;;;5019279;28;20203;-94
2021/12/15 13:52:54;;;;;;;85.60;35.55;;;4.40;99.90;;;;;;5016644;28;20174;-88
2021/12/15 13:55:38;;;;;;;65.35;31.92;;;4.30;99.90;;;;;;5015630;28;20209;-93
2021/12/15 13:58:10;;;;;;;67.85;31.52;;;4.30;99.90;;;;;;5016185;28;20321;-88
2021/12/15 14:00:48;;;;;;;70.43;31.00;;;4.30;99.90;;;;;;5017328;28;20206;-88
2021/12/15 14:03:22;;;;;;;84.43;44.10;;;4.30;99.90;;;;;;5010325;28;20190;-94
2021/12/15 14:05:51;;;;;;;87.53;50.53;;;4.30;99.90;;;;;;5042896;28;20252;-89
2021/12/15 14:08:31;;;;;;;67.93;36.75;;;4.30;99.90;;;;;;5029349;28;20641;-95
2021/12/15 14:11:02;;;;;;;72.30;35.40;;;4.20;99.90;;;;;;5031968;28;20562;-89
2021/12/15 14:13:43;;;;;;;67.18;30.45;;;4.20;99.90;;;;;;5031020;28;20183;-94
2021/12/15 14:16:13;;;;;;;66.47;31.42;;;4.20;99.90;;;;;;5032548;28;20233;-89
2021/12/15 14:18:40;;;;;;;69.22;32.80;;;4.20;99.90;;;;;;5011414;28;20182;-94
2021/12/15 14:21:13;;;;;;;60.95;29.42;;;4.20;99.90;;;;;;5030809;28;20560;-89
2021/12/15 14:23:42;;;;;;;59.15;31.13;;;4.20;99.90;;;;;;5006712;28;20185;-88